createdAt,value
2024-03-01T00:00:08.280Z,94231.00
2024-03-01T00:01:08.537Z,94231.00
2024-03-01T00:02:08.317Z,94231.00
2024-03-01T00:03:08.348Z,94231.00
2024-03-01T00:04:08.408Z,94232.00
2024-03-01T00:05:08.535Z,94234.00
2024-03-01T00:06:08.472Z,94235.00
2024-03-01T00:58:13.319Z,94232.00
2024-03-01T00:59:08.975Z,94232.00
2024-03-01T01:00:09.009Z,94233.00
2024-03-01T01:01:09.104Z,94232.00
2024-03-01T01:02:09.197Z,94232.00
2024-03-01T01:03:09.109Z,94231.00
2024-03-01T01:04:09.205Z,94233.00
2024-03-01T01:05:09.324Z,94231.00
2024-03-01T01:06:09.294Z,94230.00
2024-03-01T01:07:09.401Z,94230.00
2024-03-01T01:08:09.416Z,94227.00
2024-03-01T01:09:09.474Z,94226.00
2024-03-01T01:10:09.638Z,94226.00
2024-03-01T01:11:09.685Z,94224.00
2024-03-01T01:12:09.703Z,94226.00
2024-03-01T01:13:09.756Z,94223.00
2024-03-01T01:14:09.767Z,94223.00
2024-03-01T01:15:13.050Z,94223.00
2024-03-01T01:16:10.209Z,94225.00
2024-03-01T01:17:09.792Z,94226.00
2024-03-01T01:18:09.812Z,94228.00
2024-03-01T01:19:09.865Z,94229.00
2024-03-01T01:20:09.898Z,94230.00
2024-03-01T01:21:09.947Z,94230.00
2024-03-01T01:22:10.028Z,94229.00
2024-03-01T01:23:10.093Z,94228.00
2024-03-01T01:24:10.171Z,94226.00
2024-03-01T01:25:10.288Z,94225.00
2024-03-01T01:26:10.288Z,94221.00
2024-03-01T01:27:10.357Z,94217.00
2024-03-01T01:28:10.495Z,94216.00
2024-03-01T01:29:10.487Z,94217.00
2024-03-01T01:30:10.703Z,94215.00
2024-03-01T01:31:10.659Z,94213.00
2024-03-01T01:32:10.696Z,94211.00
2024-03-01T01:33:10.819Z,94211.00
2024-03-01T01:34:10.845Z,94207.00
2024-03-01T01:35:10.848Z,94205.00
2024-03-01T01:36:10.897Z,94203.00
2024-03-01T01:37:11.140Z,94201.00
2024-03-01T01:38:11.094Z,94196.00
2024-03-01T01:39:11.070Z,94193.00
2024-03-01T01:40:11.190Z,94196.00
2024-03-01T01:41:11.211Z,94196.00
2024-03-01T01:42:11.273Z,94197.00
2024-03-01T01:43:11.376Z,94196.00
2024-03-01T01:44:11.416Z,94198.00
2024-03-01T01:45:11.474Z,94196.00
2024-03-01T01:46:11.755Z,94195.00
2024-03-01T01:47:11.631Z,94196.00
2024-03-01T01:48:11.764Z,94194.00
2024-03-01T01:49:11.750Z,94192.00
2024-03-01T01:50:11.759Z,94187.00
2024-03-01T01:51:11.813Z,94186.00
2024-03-01T01:52:11.944Z,94182.00
2024-03-01T01:53:20.575Z,94182.00
2024-03-01T01:54:11.967Z,94183.00
2024-03-01T01:55:12.027Z,94182.00
2024-03-01T01:56:11.965Z,94184.00
2024-03-01T01:57:11.955Z,94185.00
2024-03-01T01:58:11.981Z,94185.00
2024-03-01T01:59:11.967Z,94185.00
2024-03-01T02:00:11.971Z,94188.00
2024-03-01T02:01:12.052Z,94187.00
2024-03-01T02:02:12.122Z,94185.00
2024-03-01T02:03:11.989Z,94184.00
2024-03-01T02:04:12.014Z,94184.00
2024-03-01T02:05:11.975Z,94183.00
2024-03-01T02:06:11.974Z,94184.00
2024-03-01T02:07:12.013Z,94183.00
2024-03-01T02:08:11.982Z,94182.00
2024-03-01T02:09:11.983Z,94183.00
2024-03-01T02:10:12.019Z,94182.00
2024-03-01T02:11:11.981Z,94181.00
2024-03-01T02:12:12.074Z,94178.00
2024-03-01T02:13:12.015Z,94176.00
2024-03-01T02:14:12.019Z,94175.00
2024-03-01T02:15:11.992Z,94170.00
2024-03-01T02:16:12.028Z,94167.00
2024-03-01T02:17:12.000Z,94167.00
2024-03-01T02:18:12.048Z,94166.00
2024-03-01T02:19:12.042Z,94164.00
2024-03-01T02:20:12.002Z,94162.00
2024-03-01T02:21:12.065Z,94156.00
2024-03-01T02:22:12.138Z,94153.00
2024-03-01T02:23:12.142Z,94152.00
2024-03-01T02:24:12.214Z,94148.00
2024-03-01T02:25:12.296Z,94147.00
2024-03-01T02:26:12.338Z,94146.00
2024-03-01T02:27:12.409Z,94145.00
2024-03-01T02:28:12.510Z,94147.00
2024-03-01T02:29:12.552Z,94147.00
2024-03-01T02:30:12.633Z,94148.00
2024-03-01T02:31:12.708Z,94146.00
2024-03-01T02:32:12.745Z,94142.00
2024-03-01T02:33:12.809Z,94140.00
2024-03-01T02:34:13.003Z,94139.00
2024-03-01T02:35:12.908Z,94138.00
2024-03-01T02:36:12.975Z,94136.00
2024-03-01T02:37:13.745Z,94134.00
2024-03-01T02:38:13.089Z,94134.00
2024-03-01T02:39:13.155Z,94131.00
2024-03-01T02:40:13.408Z,94131.00
2024-03-01T02:41:13.300Z,94128.00
2024-03-01T02:42:13.384Z,94124.00
2024-03-01T02:43:13.455Z,94124.00
2024-03-01T02:44:13.503Z,94121.00
2024-03-01T02:45:13.643Z,94117.00
2024-03-01T02:46:13.697Z,94116.00
2024-03-01T02:47:13.674Z,94118.00
2024-03-01T02:48:13.747Z,94118.00
2024-03-01T02:49:13.862Z,94118.00
2024-03-01T02:50:13.997Z,94121.00
2024-03-01T02:51:13.969Z,94122.00
2024-03-01T02:52:13.993Z,94124.00
2024-03-01T02:53:14.012Z,94124.00
2024-03-01T02:54:14.054Z,94125.00
2024-03-01T02:55:14.106Z,94127.00
2024-03-01T02:56:14.160Z,94129.00
2024-03-01T02:57:14.245Z,94129.00
2024-03-01T02:58:14.327Z,94130.00
2024-03-01T02:59:14.374Z,94132.00
2024-03-01T03:00:14.453Z,94131.00
2024-03-01T03:01:14.543Z,94130.00
2024-03-01T03:02:14.534Z,94130.00
2024-03-01T03:03:14.600Z,94131.00
2024-03-01T03:04:14.700Z,94129.00
2024-03-01T03:05:14.742Z,94128.00
2024-03-01T03:06:14.840Z,94129.00
2024-03-01T03:07:14.982Z,94130.00
2024-03-01T03:08:14.935Z,94132.00
2024-03-01T03:09:15.004Z,94128.00
2024-03-01T03:10:15.117Z,94128.00
2024-03-01T03:11:15.157Z,94127.00
2024-03-01T03:12:15.169Z,94127.00
2024-03-01T03:13:15.263Z,94127.00
2024-03-01T03:14:15.314Z,94129.00
2024-03-01T03:15:15.490Z,94131.00
2024-03-01T03:16:15.487Z,94132.00
2024-03-01T03:17:15.519Z,94132.00
2024-03-01T03:18:15.638Z,94131.00
2024-03-01T03:19:15.683Z,94132.00
2024-03-01T03:20:15.694Z,94129.00
2024-03-01T03:21:15.748Z,94132.00
2024-03-01T03:22:15.956Z,94132.00
2024-03-01T03:23:15.857Z,94133.00
2024-03-01T03:24:15.921Z,94132.00
2024-03-01T03:25:16.562Z,94132.00
2024-03-01T03:26:16.068Z,94135.00
2024-03-01T03:27:16.124Z,94133.00
2024-03-01T03:28:16.278Z,94133.00
2024-03-01T03:29:16.268Z,94133.00
2024-03-01T03:30:16.327Z,94131.00
2024-03-01T03:31:16.472Z,94132.00
2024-03-01T03:32:16.472Z,94131.00
2024-03-01T03:33:16.538Z,94131.00
2024-03-01T03:34:16.619Z,94132.00
2024-03-01T03:35:16.690Z,94131.00
2024-03-01T03:36:16.728Z,94130.00
2024-03-01T03:37:16.825Z,94129.00
2024-03-01T03:38:16.986Z,94128.00
2024-03-01T03:39:16.915Z,94129.00
2024-03-01T03:40:17.237Z,94133.00
2024-03-01T03:41:17.061Z,94133.00
2024-03-01T03:42:17.126Z,94134.00
2024-03-01T03:43:17.307Z,94133.00
2024-03-01T03:44:17.266Z,94133.00
2024-03-01T03:45:17.383Z,94130.00
2024-03-01T03:46:17.459Z,94129.00
2024-03-01T03:47:17.479Z,94129.00
2024-03-01T03:48:17.641Z,94129.00
2024-03-01T03:49:17.695Z,94130.00
2024-03-01T03:50:17.692Z,94126.00
2024-03-01T03:51:17.760Z,94126.00
2024-03-01T03:52:17.875Z,94125.00
2024-03-01T03:53:17.897Z,94124.00
2024-03-01T03:54:17.987Z,94125.00
2024-03-01T03:55:18.070Z,94123.00
2024-03-01T03:56:18.113Z,94122.00
2024-03-01T03:57:18.175Z,94122.00
2024-03-01T03:58:18.266Z,94123.00
2024-03-01T03:59:18.317Z,94122.00
2024-03-01T04:00:18.387Z,94121.00
2024-03-01T04:01:21.304Z,94117.00
2024-03-01T04:02:18.489Z,94117.00
2024-03-01T04:03:18.510Z,94115.00
2024-03-01T04:04:18.565Z,94112.00
2024-03-01T04:05:18.625Z,94111.00
2024-03-01T04:06:18.675Z,94112.00
2024-03-01T04:07:18.768Z,94112.00
2024-03-01T04:08:18.807Z,94113.00
2024-03-01T04:09:18.873Z,94112.00
2024-03-01T04:10:19.214Z,94114.00
2024-03-01T04:11:19.053Z,94112.00
2024-03-01T04:12:19.090Z,94112.00
2024-03-01T04:13:19.218Z,94110.00
2024-03-01T04:14:19.225Z,94111.00
2024-03-01T04:15:19.313Z,94110.00
2024-03-01T04:16:19.521Z,94109.00
2024-03-01T04:17:19.495Z,94107.00
2024-03-01T04:18:19.503Z,94108.00
2024-03-01T04:19:19.624Z,94106.00
2024-03-01T04:20:19.639Z,94105.00
2024-03-01T04:21:19.710Z,94106.00
2024-03-01T04:22:19.818Z,94104.00
2024-03-01T04:23:19.900Z,94104.00
2024-03-01T04:24:19.909Z,94104.00
2024-03-01T04:25:19.992Z,94103.00
2024-03-01T04:26:20.153Z,94102.00
2024-03-01T04:27:20.108Z,94101.00
2024-03-01T04:28:20.223Z,94101.00
2024-03-01T04:29:20.182Z,94097.00
2024-03-01T04:30:20.234Z,94095.00
2024-03-01T04:31:20.295Z,94095.00
2024-03-01T04:32:20.335Z,94095.00
2024-03-01T04:33:20.408Z,94095.00
2024-03-01T04:34:20.462Z,94095.00
2024-03-01T04:35:20.499Z,94099.00
2024-03-01T04:36:20.553Z,94098.00
2024-03-01T04:37:20.674Z,94100.00
2024-03-01T04:38:27.847Z,94099.00
2024-03-01T04:39:28.856Z,94100.00
2024-03-01T04:40:29.514Z,94097.00
2024-03-01T04:41:28.966Z,94097.00
2024-03-01T04:42:28.851Z,94100.00
2024-03-01T04:43:28.972Z,94099.00
2024-03-01T04:44:28.875Z,94099.00
2024-03-01T04:45:28.861Z,94100.00
2024-03-01T04:46:28.953Z,94099.00
2024-03-01T04:47:28.888Z,94099.00
2024-03-01T04:48:28.859Z,94096.00
2024-03-01T04:49:28.908Z,94098.00
2024-03-01T04:50:28.873Z,94098.00
2024-03-01T04:51:28.867Z,94100.00
2024-03-01T04:52:28.886Z,94101.00
2024-03-01T04:53:28.897Z,94099.00
2024-03-01T04:54:28.899Z,94101.00
2024-03-01T04:55:28.976Z,94099.00
2024-03-01T04:56:29.020Z,94099.00
2024-03-01T04:57:29.124Z,94098.00
2024-03-01T04:58:29.163Z,94097.00
2024-03-01T04:59:29.210Z,94099.00
2024-03-01T05:00:29.262Z,94099.00
2024-03-01T05:01:29.369Z,94098.00
2024-03-01T05:02:29.373Z,94098.00
2024-03-01T05:03:29.429Z,94099.00
2024-03-01T05:04:29.468Z,94098.00
2024-03-01T05:05:29.498Z,94098.00
2024-03-01T05:06:29.550Z,94097.00
2024-03-01T05:07:29.814Z,94097.00
2024-03-01T05:08:29.673Z,94099.00
2024-03-01T05:09:29.737Z,94099.00
2024-03-01T05:10:29.871Z,94100.00
2024-03-01T05:11:29.917Z,94100.00
2024-03-01T05:12:29.951Z,94100.00
2024-03-01T05:13:30.197Z,94099.00
2024-03-01T05:14:30.072Z,94101.00
2024-03-01T05:15:30.144Z,94099.00
2024-03-01T05:16:30.229Z,94098.00
2024-03-01T05:17:30.268Z,94098.00
2024-03-01T05:18:30.331Z,94098.00
2024-03-01T05:19:30.414Z,94100.00
2024-03-01T05:20:30.461Z,94101.00
2024-03-01T05:21:30.515Z,94100.00
2024-03-01T05:22:30.599Z,94099.00
2024-03-01T05:23:31.680Z,94099.00
2024-03-01T05:24:30.645Z,94096.00
2024-03-01T05:25:30.744Z,94093.00
2024-03-01T05:26:30.648Z,94093.00
2024-03-01T05:27:30.667Z,94094.00
2024-03-01T05:28:30.712Z,94089.00
2024-03-01T05:29:30.777Z,94090.00
2024-03-01T05:30:41.810Z,94087.00
2024-03-01T05:31:34.177Z,94086.00
2024-03-01T05:32:30.686Z,94088.00
2024-03-01T05:33:30.669Z,94089.00
2024-03-01T05:34:30.732Z,94088.00
2024-03-01T05:35:30.672Z,94089.00
2024-03-01T05:36:30.680Z,94092.00
2024-03-01T05:37:30.725Z,94092.00
2024-03-01T05:38:30.673Z,94094.00
2024-03-01T05:39:30.678Z,94096.00
2024-03-01T05:40:32.419Z,94098.00
2024-03-01T05:41:30.679Z,94100.00
2024-03-01T05:42:30.717Z,94102.00
2024-03-01T05:43:30.710Z,94106.00
2024-03-01T05:44:30.688Z,94108.00
2024-03-01T05:45:30.723Z,94108.00
2024-03-01T05:46:30.727Z,94109.00
2024-03-01T05:47:30.762Z,94108.00
2024-03-01T05:48:30.701Z,94109.00
2024-03-01T05:49:30.734Z,94110.00
2024-03-01T05:50:30.705Z,94111.00
2024-03-01T05:51:30.704Z,94111.00
2024-03-01T05:52:30.751Z,94114.00
2024-03-01T05:53:30.711Z,94114.00
2024-03-01T05:54:30.926Z,94114.00
2024-03-01T05:55:30.790Z,94115.00
2024-03-01T05:56:30.781Z,94116.00
2024-03-01T05:57:30.879Z,94119.00
2024-03-01T05:58:30.975Z,94119.00
2024-03-01T05:59:30.972Z,94121.00
2024-03-01T06:00:31.039Z,94120.00
2024-03-01T06:01:31.302Z,94120.00
2024-03-01T06:02:31.150Z,94120.00
2024-03-01T06:03:31.218Z,94123.00
2024-03-01T06:04:31.433Z,94119.00
2024-03-01T06:05:31.302Z,94120.00
2024-03-01T06:06:31.343Z,94119.00
2024-03-01T06:07:31.517Z,94114.00
2024-03-01T06:08:31.478Z,94116.00
2024-03-01T06:09:31.513Z,94121.00
2024-03-01T06:10:31.590Z,94118.00
2024-03-01T06:11:31.640Z,94117.00
2024-03-01T06:12:31.662Z,94117.00
2024-03-01T06:13:32.089Z,94113.00
2024-03-01T06:14:31.753Z,94111.00
2024-03-01T06:15:31.811Z,94111.00
2024-03-01T06:16:31.933Z,94113.00
2024-03-01T06:17:31.992Z,94118.00
2024-03-01T06:18:31.969Z,94119.00
2024-03-01T06:19:32.042Z,94126.00
2024-03-01T06:20:32.081Z,94127.00
2024-03-01T06:21:32.146Z,94131.00
2024-03-01T06:22:32.650Z,94132.00
2024-03-01T06:23:32.276Z,94132.00
2024-03-01T06:24:32.641Z,94136.00
2024-03-01T06:25:32.405Z,94134.00
2024-03-01T06:26:32.462Z,94130.00
2024-03-01T06:27:32.542Z,94131.00
2024-03-01T06:28:32.627Z,94132.00
2024-03-01T06:29:32.685Z,94134.00
2024-03-01T06:30:32.719Z,94137.00
2024-03-01T06:31:33.078Z,94137.00
2024-03-01T06:32:32.810Z,94140.00
2024-03-01T06:33:32.889Z,94142.00
2024-03-01T06:34:32.945Z,94143.00
2024-03-01T06:35:32.948Z,94140.00
2024-03-01T06:36:32.992Z,94130.00
2024-03-01T06:37:33.265Z,94131.00
2024-03-01T06:38:33.092Z,94136.00
2024-03-01T06:39:33.141Z,94132.00
2024-03-01T06:40:33.272Z,94137.00
2024-03-01T06:41:33.257Z,94142.00
2024-03-01T06:42:33.275Z,94141.00
2024-03-01T06:43:33.661Z,94147.00
2024-03-01T06:44:33.355Z,94153.00
2024-03-01T06:45:33.400Z,94151.00
2024-03-01T06:46:33.653Z,94148.00
2024-03-01T06:47:33.604Z,94151.00
2024-03-01T06:48:33.606Z,94153.00
2024-03-01T06:49:33.734Z,94156.00
2024-03-01T06:50:33.638Z,94152.00
2024-03-01T06:51:33.671Z,94147.00
2024-03-01T06:52:34.598Z,94148.00
2024-03-01T06:53:34.077Z,94150.00
2024-03-01T06:54:33.731Z,94150.00
2024-03-01T06:55:33.898Z,94153.00
2024-03-01T06:56:34.200Z,94145.00
2024-03-01T06:57:34.085Z,94138.00
2024-03-01T06:58:33.988Z,94155.00
2024-03-01T06:59:33.937Z,94158.00
2024-03-01T07:00:34.032Z,94160.00
2024-03-01T07:01:34.063Z,94159.00
2024-03-01T07:02:34.063Z,94154.00
2024-03-01T07:03:34.415Z,94154.00
2024-03-01T07:04:34.073Z,94159.00
2024-03-01T07:05:34.415Z,94162.00
2024-03-01T07:06:34.160Z,94162.00
2024-03-01T07:07:34.681Z,94162.00
2024-03-01T07:08:34.326Z,94164.00
2024-03-01T07:09:34.606Z,94164.00
2024-03-01T07:10:34.506Z,94167.00
2024-03-01T07:11:34.507Z,94168.00
2024-03-01T07:12:34.521Z,94167.00
2024-03-01T07:13:34.690Z,94171.00
2024-03-01T07:14:34.575Z,94168.00
2024-03-01T07:15:35.604Z,94168.00
2024-03-01T07:16:34.797Z,94171.00
2024-03-01T07:17:34.862Z,94173.00
2024-03-01T07:18:35.080Z,94175.00
2024-03-01T07:19:34.898Z,94177.00
2024-03-01T07:20:34.813Z,94180.00
2024-03-01T07:21:35.594Z,94185.00
2024-03-01T07:22:35.195Z,94186.00
2024-03-01T07:23:35.068Z,94186.00
2024-03-01T07:24:34.888Z,94186.00
2024-03-01T07:25:35.012Z,94186.00
2024-03-01T07:26:34.928Z,94184.00
2024-03-01T07:27:34.948Z,94187.00
2024-03-01T07:28:35.163Z,94189.00
2024-03-01T07:29:35.061Z,94190.00
2024-03-01T07:30:35.057Z,94190.00
2024-03-01T07:31:35.321Z,94189.00
2024-03-01T07:32:35.082Z,94192.00
2024-03-01T07:33:35.585Z,94189.00
2024-03-01T07:34:35.515Z,94194.00
2024-03-01T07:35:35.105Z,94195.00
2024-03-01T07:36:35.106Z,94195.00
2024-03-01T07:37:35.346Z,94193.00
2024-03-01T07:38:35.573Z,94196.00
2024-03-01T07:39:35.131Z,94197.00
2024-03-01T07:40:35.264Z,94199.00
2024-03-01T07:41:35.207Z,94199.00
2024-03-01T07:42:35.264Z,94197.00
2024-03-01T07:43:35.284Z,94195.00
2024-03-01T07:44:35.299Z,94195.00
2024-03-01T07:45:36.079Z,94194.00
2024-03-01T07:46:37.111Z,94193.00
2024-03-01T07:47:35.423Z,94194.00
2024-03-01T07:48:35.577Z,94195.00
2024-03-01T07:49:35.470Z,94194.00
2024-03-01T07:50:35.618Z,94198.00
2024-03-01T07:51:35.591Z,94197.00
2024-03-01T07:52:36.339Z,94195.00
2024-03-01T07:53:35.708Z,94195.00
2024-03-01T07:54:38.580Z,94195.00
2024-03-01T07:55:38.316Z,94195.00
2024-03-01T07:56:35.324Z,94193.00
2024-03-01T07:57:35.344Z,94195.00
2024-03-01T07:58:35.693Z,94190.00
2024-03-01T07:59:35.374Z,94193.00
2024-03-01T08:00:35.431Z,94194.00
2024-03-01T08:01:35.645Z,94193.00
2024-03-01T08:02:35.347Z,94193.00
2024-03-01T08:03:35.394Z,94191.00
2024-03-01T08:04:35.665Z,94192.00
2024-03-01T08:05:35.350Z,94190.00
2024-03-01T08:06:35.357Z,94190.00
2024-03-01T08:07:35.406Z,94191.00
2024-03-01T08:08:35.587Z,94189.00
2024-03-01T08:09:35.625Z,94191.00
2024-03-01T08:10:35.468Z,94190.00
2024-03-01T08:11:35.419Z,94188.00
2024-03-01T08:12:35.367Z,94189.00
2024-03-01T08:13:35.409Z,94191.00
2024-03-01T08:14:35.591Z,94191.00
2024-03-01T08:15:35.355Z,94192.00
2024-03-01T08:16:35.416Z,94196.00
2024-03-01T08:17:35.385Z,94197.00
2024-03-01T08:18:35.646Z,94198.00
2024-03-01T08:19:35.454Z,94197.00
2024-03-01T08:20:35.378Z,94197.00
2024-03-01T08:21:35.378Z,94197.00
2024-03-01T08:22:35.407Z,94194.00
2024-03-01T08:23:35.592Z,94198.00
2024-03-01T08:24:35.370Z,94197.00
2024-03-01T08:25:35.664Z,94201.00
2024-03-01T08:26:35.410Z,94204.00
2024-03-01T08:27:35.475Z,94202.00
2024-03-01T08:28:35.545Z,94206.00
2024-03-01T08:29:35.583Z,94206.00
2024-03-01T08:30:36.101Z,94208.00
2024-03-01T08:31:36.352Z,94208.00
2024-03-01T08:32:35.734Z,94209.00
2024-03-01T08:33:36.147Z,94206.00
2024-03-01T08:34:35.878Z,94209.00
2024-03-01T08:35:36.108Z,94207.00
2024-03-01T08:36:35.801Z,94208.00
2024-03-01T08:37:35.835Z,94204.00
2024-03-01T08:38:35.980Z,94203.00
2024-03-01T08:39:35.823Z,94208.00
2024-03-01T08:40:36.245Z,94208.00
2024-03-01T08:41:35.983Z,94212.00
2024-03-01T08:42:35.861Z,94213.00
2024-03-01T08:43:36.173Z,94215.00
2024-03-01T08:44:35.902Z,94216.00
2024-03-01T08:45:35.929Z,94217.00
2024-03-01T08:46:36.100Z,94218.00
2024-03-01T08:47:35.992Z,94221.00
2024-03-01T08:48:36.114Z,94221.00
2024-03-01T08:49:36.028Z,94221.00
2024-03-01T08:50:36.022Z,94219.00
2024-03-01T08:51:36.107Z,94218.00
2024-03-01T08:52:36.159Z,94219.00
2024-03-01T08:53:37.109Z,94222.00
2024-03-01T08:54:36.614Z,94220.00
2024-03-01T08:55:36.808Z,94222.00
2024-03-01T08:56:36.329Z,94221.00
2024-03-01T08:57:36.419Z,94220.00
2024-03-01T08:58:37.642Z,94220.00
2024-03-01T08:59:36.644Z,94220.00
2024-03-01T09:00:36.582Z,94216.00
2024-03-01T09:01:37.175Z,94222.00
2024-03-01T09:02:36.665Z,94225.00
2024-03-01T09:03:37.109Z,94223.00
2024-03-01T09:04:36.847Z,94225.00
2024-03-01T09:05:36.866Z,94220.00
2024-03-01T09:06:37.337Z,94222.00
2024-03-01T09:07:37.017Z,94217.00
2024-03-01T09:08:37.086Z,94214.00
2024-03-01T09:09:37.143Z,94216.00
2024-03-01T09:10:37.523Z,94215.00
2024-03-01T09:11:37.698Z,94215.00
2024-03-01T09:12:37.328Z,94216.00
2024-03-01T09:13:37.550Z,94214.00
2024-03-01T09:14:37.426Z,94213.00
2024-03-01T09:15:37.423Z,94212.00
2024-03-01T09:16:37.549Z,94209.00
2024-03-01T09:17:37.639Z,94211.00
2024-03-01T09:18:37.657Z,94211.00
2024-03-01T09:19:37.707Z,94211.00
2024-03-01T09:20:37.660Z,94210.00
2024-03-01T09:21:38.135Z,94206.00
2024-03-01T09:22:37.811Z,94206.00
2024-03-01T09:23:38.119Z,94202.00
2024-03-01T09:24:37.706Z,94200.00
2024-03-01T09:25:37.748Z,94200.00
2024-03-01T09:26:38.128Z,94200.00
2024-03-01T09:27:37.759Z,94201.00
2024-03-01T09:28:37.846Z,94202.00
2024-03-01T09:29:37.969Z,94200.00
2024-03-01T09:30:37.900Z,94199.00
2024-03-01T09:31:38.216Z,94197.00
2024-03-01T09:32:38.149Z,94193.00
2024-03-01T09:33:38.016Z,94191.00
2024-03-01T09:34:38.132Z,94187.00
2024-03-01T09:35:38.635Z,94186.00
2024-03-01T09:36:38.246Z,94187.00
2024-03-01T09:37:38.371Z,94187.00
2024-03-01T09:38:38.634Z,94186.00
2024-03-01T09:39:38.391Z,94187.00
2024-03-01T09:40:38.561Z,94186.00
2024-03-01T09:41:38.467Z,94184.00
2024-03-01T09:42:38.556Z,94183.00
2024-03-01T09:43:38.644Z,94180.00
2024-03-01T09:44:38.664Z,94181.00
2024-03-01T09:45:38.850Z,94178.00
2024-03-01T09:46:38.880Z,94177.00
2024-03-01T09:47:38.842Z,94176.00
2024-03-01T09:48:40.140Z,94178.00
2024-03-01T09:49:38.957Z,94178.00
2024-03-01T09:50:38.961Z,94179.00
2024-03-01T09:51:38.962Z,94178.00
2024-03-01T09:52:39.029Z,94180.00
2024-03-01T09:53:39.139Z,94180.00
2024-03-01T09:54:39.055Z,94181.00
2024-03-01T09:55:39.321Z,94185.00
2024-03-01T09:56:39.089Z,94186.00
2024-03-01T09:57:39.096Z,94182.00
2024-03-01T09:58:39.273Z,94179.00
2024-03-01T09:59:39.182Z,94180.00
2024-03-01T10:00:39.256Z,94179.00
2024-03-01T10:01:39.576Z,94178.00
2024-03-01T10:02:39.643Z,94174.00
2024-03-01T10:03:39.277Z,94174.00
2024-03-01T10:04:40.822Z,94177.00
2024-03-01T10:05:39.360Z,94175.00
2024-03-01T10:06:39.316Z,94175.00
2024-03-01T10:07:39.728Z,94176.00
2024-03-01T10:08:39.339Z,94177.00
2024-03-01T10:09:39.326Z,94178.00
2024-03-01T10:10:39.477Z,94177.00
2024-03-01T10:11:39.342Z,94179.00
2024-03-01T10:12:39.381Z,94179.00
2024-03-01T10:13:39.730Z,94182.00
2024-03-01T10:14:39.328Z,94180.00
2024-03-01T10:15:39.339Z,94182.00
2024-03-01T10:16:39.390Z,94181.00
2024-03-01T10:17:39.410Z,94180.00
2024-03-01T10:18:39.362Z,94182.00
2024-03-01T10:19:39.398Z,94181.00
2024-03-01T10:20:39.338Z,94180.00
2024-03-01T10:21:39.341Z,94178.00
2024-03-01T10:22:39.386Z,94175.00
2024-03-01T10:23:39.671Z,94172.00
2024-03-01T10:24:39.686Z,94169.00
2024-03-01T10:25:39.377Z,94168.00
2024-03-01T10:26:39.367Z,94166.00
2024-03-01T10:27:39.366Z,94164.00
2024-03-01T10:28:39.770Z,94165.00
2024-03-01T10:29:39.422Z,94164.00
2024-03-01T10:30:40.370Z,94167.00
2024-03-01T10:31:39.434Z,94166.00
2024-03-01T10:32:40.398Z,94168.00
2024-03-01T10:33:39.957Z,94164.00
2024-03-01T10:34:39.543Z,94165.00
2024-03-01T10:35:39.445Z,94165.00
2024-03-01T10:36:39.482Z,94165.00
2024-03-01T10:37:39.605Z,94163.00
2024-03-01T10:38:39.679Z,94160.00
2024-03-01T10:39:39.608Z,94160.00
2024-03-01T10:40:39.690Z,94159.00
2024-03-01T10:41:41.748Z,94155.00
2024-03-01T10:42:39.662Z,94155.00
2024-03-01T10:43:40.229Z,94155.00
2024-03-01T10:44:39.673Z,94156.00
2024-03-01T10:45:39.668Z,94158.00
2024-03-01T10:46:39.719Z,94156.00
2024-03-01T10:47:40.204Z,94156.00
2024-03-01T10:48:40.166Z,94154.00
2024-03-01T10:49:39.869Z,94154.00
2024-03-01T10:50:39.697Z,94153.00
2024-03-01T10:51:39.683Z,94153.00
2024-03-01T10:52:40.830Z,94153.00
2024-03-01T10:53:40.170Z,94152.00
2024-03-01T10:54:39.681Z,94151.00
2024-03-01T10:55:39.746Z,94153.00
2024-03-01T10:56:39.685Z,94150.00
2024-03-01T10:57:40.450Z,94153.00
2024-03-01T10:58:39.827Z,94151.00
2024-03-01T10:59:40.171Z,94149.00
2024-03-01T11:00:39.715Z,94150.00
2024-03-01T11:01:39.762Z,94148.00
2024-03-01T11:02:39.702Z,94148.00
2024-03-01T11:03:39.695Z,94146.00
2024-03-01T11:04:39.743Z,94147.00
2024-03-01T11:05:39.829Z,94144.00
2024-03-01T11:06:39.699Z,94143.00
2024-03-01T11:07:39.771Z,94141.00
2024-03-01T11:08:40.190Z,94139.00
2024-03-01T11:09:39.712Z,94136.00
2024-03-01T11:10:40.000Z,94138.00
2024-03-01T11:11:39.775Z,94137.00
2024-03-01T11:12:40.174Z,94136.00
2024-03-01T11:13:39.966Z,94135.00
2024-03-01T11:14:39.715Z,94134.00
2024-03-01T11:15:39.752Z,94134.00
2024-03-01T11:16:39.768Z,94135.00
2024-03-01T11:17:39.749Z,94134.00
2024-03-01T11:18:40.171Z,94135.00
2024-03-01T11:19:39.795Z,94136.00
2024-03-01T11:20:39.773Z,94136.00
2024-03-01T11:21:39.954Z,94136.00
2024-03-01T11:22:39.931Z,94136.00
2024-03-01T11:23:40.218Z,94134.00
2024-03-01T11:24:39.986Z,94134.00
2024-03-01T11:25:40.143Z,94134.00
2024-03-01T11:26:40.100Z,94132.00
2024-03-01T11:27:40.162Z,94133.00
2024-03-01T11:28:40.767Z,94132.00
2024-03-01T11:29:40.259Z,94131.00
2024-03-01T11:30:40.358Z,94133.00
2024-03-01T11:31:40.398Z,94135.00
2024-03-01T11:32:40.719Z,94134.00
2024-03-01T11:33:40.677Z,94132.00
2024-03-01T11:34:40.619Z,94135.00
2024-03-01T11:35:40.650Z,94133.00
2024-03-01T11:36:40.694Z,94135.00
2024-03-01T11:37:40.816Z,94132.00
2024-03-01T11:38:40.837Z,94133.00
2024-03-01T11:39:40.877Z,94131.00
2024-03-01T11:40:41.056Z,94129.00
2024-03-01T11:41:40.916Z,94128.00
2024-03-01T11:42:40.924Z,94129.00
2024-03-01T11:43:41.031Z,94128.00
2024-03-01T11:44:41.024Z,94123.00
2024-03-01T11:45:41.007Z,94125.00
2024-03-01T11:46:41.436Z,94124.00
2024-03-01T11:47:41.108Z,94121.00
2024-03-01T11:48:41.191Z,94121.00
2024-03-01T11:49:41.241Z,94119.00
2024-03-01T11:50:41.230Z,94122.00
2024-03-01T11:51:41.271Z,94118.00
2024-03-01T11:52:41.404Z,94118.00
2024-03-01T11:53:41.719Z,94118.00
2024-03-01T11:54:41.494Z,94118.00
2024-03-01T11:55:41.546Z,94116.00
2024-03-01T11:56:41.453Z,94117.00
2024-03-01T11:57:41.486Z,94114.00
2024-03-01T11:58:41.774Z,94113.00
2024-03-01T11:59:41.557Z,94113.00
2024-03-01T12:00:41.636Z,94111.00
2024-03-01T12:01:46.771Z,94109.00
2024-03-01T12:02:41.637Z,94110.00
2024-03-01T12:03:43.331Z,94105.00
2024-03-01T12:04:41.650Z,94103.00
2024-03-01T12:05:41.632Z,94104.00
2024-03-01T12:06:41.638Z,94101.00
2024-03-01T12:07:41.677Z,94101.00
2024-03-01T12:08:41.909Z,94099.00
2024-03-01T12:09:41.805Z,94100.00
2024-03-01T12:10:41.834Z,94098.00
2024-03-01T12:11:41.657Z,94100.00
2024-03-01T12:12:41.642Z,94100.00
2024-03-01T12:13:41.669Z,94098.00
2024-03-01T12:14:41.661Z,94099.00
2024-03-01T12:15:41.666Z,94098.00
2024-03-01T12:16:41.754Z,94098.00
2024-03-01T12:17:41.686Z,94096.00
2024-03-01T12:18:41.702Z,94096.00
2024-03-01T12:19:41.733Z,94099.00
2024-03-01T12:20:41.664Z,94097.00
2024-03-01T12:21:41.668Z,94096.00
2024-03-01T12:22:41.717Z,94096.00
2024-03-01T12:23:41.712Z,94096.00
2024-03-01T12:24:41.654Z,94096.00
2024-03-01T12:25:41.722Z,94093.00
2024-03-01T12:26:41.652Z,94089.00
2024-03-01T12:27:41.674Z,94091.00
2024-03-01T12:28:41.797Z,94088.00
2024-03-01T12:29:41.735Z,94088.00
2024-03-01T12:30:41.662Z,94089.00
2024-03-01T12:31:41.677Z,94086.00
2024-03-01T12:32:41.734Z,94085.00
2024-03-01T12:33:41.710Z,94085.00
2024-03-01T12:34:41.709Z,94082.00
2024-03-01T12:35:41.670Z,94080.00